EDDM/MUC METAR and TAF weather

Enter ICAO airport designator
Station Type Date Time Source
EDDM METAR 2022/01/26 13:50 UTC NOAA

EDDM 261350Z 30006KT 6000 BKN006 01/M01 Q1029 NOSIG


Station Type Date Time Source
EDDM Decoded METAR 2022/01/26 13:50 UTC NOAA

Munchen, Germany (EDDM) 48-21N 011-47E
Jan 26, 2022 - 08:50 AM EST / 2022.01.26 1350 UTC
Wind: from the WNW (300 degrees) at 7 MPH (6 KT):0
Visibility: 3 mile(s):0
Sky conditions: mostly cloudy
Temperature: 33 F (1 C)
Windchill: 26 F (-3 C):1
Dew Point: 30 F (-1 C)
Relative Humidity: 86%
Pressure (altimeter): 30.39 in. Hg (1029 hPa)
ob: EDDM 261350Z 30006KT 6000 BKN006 01/M01 Q1029 NOSIG
cycle: 14

Station Type Date Time Source
EDDM TAF 2022/01/26 12:27 UTC NOAA

TAF EDDM 261100Z 2612/2718 26005KT 4000 BR OVC004
BECMG 2612/2613 6000 OVC005 PROB30
TEMPO 2617/2706 4000 BR OVC004
BECMG 2706/2709 CAVOK
BECMG 2710/2712 26010KT

Example: see airport list